Weather reports worldwide

Advertisment
Leon/Virgen del Camino, Spain (8055): temperature & dewpoint: 09.09.2019 10:00:00 - 15.09.2019 10:00:00 (CEST)Leon/Virgen del Camino, Spain (8055): wind speed: 09.09.2019 10:00:00 - 15.09.2019 10:00:00 (CEST)Leon/Virgen del Camino, Spain (8055): wind direction: 09.09.2019 10:00:00 - 15.09.2019 10:00:00 (CEST)Leon/Virgen del Camino, Spain (8055): visibility: 09.09.2019 10:00:00 - 15.09.2019 10:00:00 (CEST)
Date & Time tt [°C] td [°C] ff [km/h] ff [kn] dd vv [km]
15.09.2019 10:00:00 17,7 8,8 8 4 NNE -
15.09.2019 09:00:00 17,0 8,7 11 6 N -
15.09.2019 08:00:00 16,3 8,3 8 4 NNE 30
15.09.2019 07:00:00 15,5 8,5 8 4 NNW -
15.09.2019 06:00:00 15,0 8,5 9 5 N -
15.09.2019 05:00:00 14,7 8,4 8 4 N -
15.09.2019 04:00:00 17,3 9,2 8 4 NE -
15.09.2019 03:00:00 17,2 10,1 8 4 N -
15.09.2019 02:00:00 18,0 10,4 5 3 NE -
15.09.2019 01:00:00 18,7 10,3 8 4 NE -
15.09.2019 00:00:00 19,5 10,5 4 2 ESE -
14.09.2019 23:00:00 19,9 10,3 5 3 ENE -
14.09.2019 22:00:00 20,3 9,8 9 5 SSE -
14.09.2019 21:00:00 23,5 7,1 18 10 ENE -
14.09.2019 20:00:00 24,2 6,0 28 15 E 40
14.09.2019 19:00:00 24,9 6,1 21 11 E -
14.09.2019 18:00:00 25,8 6,4 28 15 ESE -
14.09.2019 17:00:00 25,0 7,2 24 13 ESE 40
14.09.2019 16:00:00 25,9 7,0 26 14 ENE -
14.09.2019 15:00:00 25,2 7,8 16 9 E -
14.09.2019 14:00:00 24,0 8,4 13 7 E 40
14.09.2019 13:00:00 22,8 9,0 15 8 E -
14.09.2019 12:00:00 21,3 10,1 18 10 ENE -
14.09.2019 11:00:00 18,7 11,6 13 7 NNE 30
14.09.2019 10:00:00 16,6 11,3 9 5 NNE -
14.09.2019 09:00:00 16,0 11,2 9 5 NE -
14.09.2019 08:00:00 16,9 9,6 13 7 ENE 25
14.09.2019 07:00:00 16,8 9,2 11 6 N -
14.09.2019 06:00:00 16,5 9,4 9 5 NNE -
14.09.2019 05:00:00 15,2 9,8 9 5 N -
14.09.2019 04:00:00 16,2 9,9 5 3 NNE -
14.09.2019 03:00:00 17,0 10,6 9 5 NE -
14.09.2019 02:00:00 17,0 10,8 16 9 E -
14.09.2019 01:00:00 18,3 8,8 11 6 ENE -
14.09.2019 00:00:00 18,1 8,1 5 3 NE -
13.09.2019 23:00:00 17,9 6,1 0 0 N -
13.09.2019 22:00:00 19,8 6,5 8 4 ESE -
13.09.2019 21:00:00 20,5 6,1 11 6 ESE -
13.09.2019 20:00:00 21,4 6,1 15 8 SE 60
13.09.2019 19:00:00 24,6 6,3 29 16 E -
13.09.2019 18:00:00 26,5 4,9 31 17 E -
13.09.2019 17:00:00 27,7 4,7 29 16 ESE 60
13.09.2019 16:00:00 29,3 3,3 18 10 ESE -
13.09.2019 15:00:00 28,3 3,7 16 9 E -
13.09.2019 14:00:00 26,7 3,8 11 6 ESE 70
13.09.2019 13:00:00 26,1 3,9 8 4 ESE -
13.09.2019 12:00:00 24,7 5,0 9 5 NNE -
13.09.2019 11:00:00 22,5 5,3 9 5 NNE 75
13.09.2019 10:00:00 20,8 4,4 9 5 N -
13.09.2019 09:00:00 15,9 4,3 11 6 NNW -
13.09.2019 08:00:00 14,2 3,6 11 6 N -
13.09.2019 07:00:00 13,8 3,5 13 7 N -
13.09.2019 06:00:00 14,9 3,7 11 6 N -
13.09.2019 05:00:00 14,9 4,3 9 5 NNE -
13.09.2019 04:00:00 14,0 4,8 11 6 N -
13.09.2019 03:00:00 15,2 5,4 0 0 N -
13.09.2019 02:00:00 14,9 5,4 5 3 NW -
13.09.2019 01:00:00 15,3 4,9 9 5 N -
13.09.2019 00:00:00 15,7 4,1 11 6 N -
12.09.2019 23:00:00 17,9 3,7 5 3 N -
12.09.2019 22:00:00 21,5 4,1 8 4 NE -
12.09.2019 21:00:00 24,0 3,8 8 4 ESE -
12.09.2019 20:00:00 26,1 3,9 8 4 SSE 40
12.09.2019 19:00:00 26,9 4,6 9 5 SE -
12.09.2019 18:00:00 27,0 4,7 9 5 SE -
12.09.2019 17:00:00 26,2 5,2 8 4 SE 50
12.09.2019 16:00:00 25,6 4,9 9 5 SE -
12.09.2019 15:00:00 24,2 5,0 11 6 SE -
12.09.2019 14:00:00 23,1 4,1 13 7 ESE 50
12.09.2019 13:00:00 21,3 2,0 13 7 ENE -
12.09.2019 12:00:00 19,2 3,4 4 2 E -
12.09.2019 11:00:00 16,3 4,6 8 4 E 50
12.09.2019 10:00:00 13,9 4,2 9 5 ESE -
12.09.2019 09:00:00 9,6 3,3 5 3 NNW -
12.09.2019 08:00:00 6,4 2,8 5 3 NW 50
12.09.2019 07:00:00 7,2 3,8 8 4 NNW -
12.09.2019 06:00:00 6,9 3,9 8 4 NW -
12.09.2019 05:00:00 7,1 4,2 9 5 NW -
12.09.2019 04:00:00 9,0 5,6 2 1 NNE -
12.09.2019 03:00:00 8,9 5,3 5 3 W -
12.09.2019 02:00:00 9,4 5,2 5 3 WNW -
12.09.2019 01:00:00 11,9 5,5 4 2 NNE -
12.09.2019 00:00:00 13,2 6,8 4 2 SSE -
11.09.2019 23:00:00 14,8 6,9 5 3 ESE -
11.09.2019 22:00:00 16,6 6,7 4 2 ESE -
11.09.2019 21:00:00 18,0 5,9 5 3 ENE -
11.09.2019 20:00:00 21,0 4,9 16 9 SE 70
11.09.2019 19:00:00 22,4 5,3 13 7 SSE -
11.09.2019 18:00:00 23,5 4,9 11 6 E -
11.09.2019 17:00:00 23,5 2,9 15 8 E 70
11.09.2019 16:00:00 22,2 3,3 16 9 E -
11.09.2019 15:00:00 21,4 2,8 18 10 E -
11.09.2019 14:00:00 20,5 4,7 13 7 ENE 65
11.09.2019 13:00:00 18,4 5,3 4 2 S -
11.09.2019 12:00:00 17,1 6,3 9 5 N -
11.09.2019 11:00:00 15,4 7,2 4 2 NE 70
11.09.2019 10:00:00 12,5 7,2 4 2 S -
11.09.2019 09:00:00 11,2 7,1 5 3 W -
11.09.2019 08:00:00 9,9 6,2 8 4 NNE 75
11.09.2019 07:00:00 9,4 5,2 9 5 NNW -
11.09.2019 06:00:00 10,7 5,7 5 3 W -
11.09.2019 05:00:00 9,9 5,5 8 4 W -
11.09.2019 04:00:00 10,0 5,4 8 4 WSW -
11.09.2019 03:00:00 9,9 5,3 9 5 NW -
11.09.2019 02:00:00 10,6 5,8 8 4 N -
11.09.2019 01:00:00 10,5 5,5 9 5 WSW -
11.09.2019 00:00:00 11,3 5,6 8 4 WNW -
10.09.2019 23:00:00 11,8 5,4 8 4 NW -
10.09.2019 22:00:00 11,7 5,3 11 6 NW -
10.09.2019 21:00:00 12,4 5,1 16 9 N -
10.09.2019 20:00:00 13,5 4,6 24 13 N 30
10.09.2019 19:00:00 15,3 4,6 28 15 NNW -
10.09.2019 18:00:00 15,7 4,4 31 17 N -
10.09.2019 17:00:00 16,2 3,9 24 13 NNW 40
10.09.2019 16:00:00 16,5 3,3 31 17 NNW -
10.09.2019 15:00:00 16,9 3,6 35 19 N -
10.09.2019 14:00:00 16,2 3,0 29 16 N 30
10.09.2019 13:00:00 15,4 2,2 22 12 NNW -
10.09.2019 12:00:00 15,1 1,2 18 10 N -
10.09.2019 11:00:00 12,9 -0,1 24 13 NNW 30
10.09.2019 10:00:00 11,8 2,0 18 10 NNW -
10.09.2019 09:00:00 9,4 2,3 16 9 W -
10.09.2019 08:00:00 7,9 2,1 13 7 W 25
10.09.2019 07:00:00 8,4 2,2 13 7 W -
10.09.2019 06:00:00 8,8 1,5 9 5 NW -
10.09.2019 05:00:00 8,7 1,6 5 3 NNE -
10.09.2019 04:00:00 8,9 3,1 5 3 N -
10.09.2019 03:00:00 9,3 2,2 8 4 WNW -
10.09.2019 02:00:00 9,9 3,4 21 11 NNE -
10.09.2019 01:00:00 10,6 4,5 18 10 N -
10.09.2019 00:00:00 13,4 6,3 21 11 N -
09.09.2019 23:00:00 14,1 5,4 9 5 WNW -
09.09.2019 22:00:00 14,6 4,0 11 6 NW -
09.09.2019 21:00:00 17,1 4,1 13 7 WNW -
09.09.2019 20:00:00 20,1 2,4 13 7 NW 30
09.09.2019 19:00:00 20,8 3,9 22 12 W -
09.09.2019 18:00:00 22,6 4,1 26 14 W -
09.09.2019 17:00:00 23,6 3,4 24 13 W 40
09.09.2019 16:00:00 22,9 2,4 26 14 WSW -
09.09.2019 15:00:00 22,8 0,6 22 12 WSW -
09.09.2019 14:00:00 22,4 -0,4 24 13 WSW 40
09.09.2019 13:00:00 20,8 6,0 15 8 WSW -
09.09.2019 12:00:00 19,1 6,4 16 9 SW -
09.09.2019 11:00:00 16,8 6,6 5 3 SE 40
09.09.2019 10:00:00 13,7 7,0 2 1 S -

tt = temperature
td = dewpoint
ff = wind speed
dd = wind direction
vv = visibility

Next stations